Terminal Aerodrome Forecast
Issued by NWS Memphis, TN

Home | Current Version | Previous Version | Text Only | Print | Product List | Glossary On
Versions: 1 2 3 4 5 6 7 8 9 10 11 12 13 14 15 16 17 18 19 20 21 22 23
000
FTUS44 KMEG 030531
TAFMKL
TAF
KMKL 030531Z 0306/0406 02005KT P6SM OVC050
      TEMPO 0308/0312 1SM BR
     FM031500 34007KT P6SM FEW010 BKN025
     FM031800 32010KT P6SM SCT025 OVC040
     FM040100 34006KT P6SM BKN250=

USA.gov is the U.S. government's official web portal to all federal, state and local government web resources and services.